createdAt,value
2023-05-20T00:01:41.985Z,99.90
2023-05-20T00:04:10.259Z,99.90
2023-05-20T00:06:38.527Z,99.90
2023-05-20T00:09:06.872Z,99.90
2023-05-20T00:11:35.010Z,99.90
2023-05-20T00:14:03.315Z,99.90
2023-05-20T00:16:31.480Z,99.90
2023-05-20T00:19:01.057Z,99.90
2023-05-20T00:21:29.649Z,99.90
2023-05-20T00:23:57.849Z,99.90
2023-05-20T00:26:26.212Z,99.90
2023-05-20T00:28:54.361Z,99.90
2023-05-20T00:31:22.793Z,99.90
2023-05-20T00:33:50.929Z,99.90
2023-05-20T00:36:20.681Z,99.90
2023-05-20T00:38:48.910Z,99.90
2023-05-20T00:41:17.035Z,99.90
2023-05-20T00:43:45.396Z,99.90
2023-05-20T00:46:14.280Z,99.90
2023-05-20T00:48:44.618Z,99.90
2023-05-20T00:51:14.192Z,99.90
2023-05-20T00:53:44.521Z,99.90
2023-05-20T00:56:13.697Z,99.90
2023-05-20T00:58:42.055Z,99.90
2023-05-20T01:01:10.200Z,99.90
2023-05-20T01:03:39.206Z,99.90
2023-05-20T01:06:07.546Z,99.90
2023-05-20T01:08:36.198Z,99.90
2023-05-20T01:11:10.634Z,99.90
2023-05-20T01:13:46.002Z,99.90
2023-05-20T01:16:16.087Z,99.90
2023-05-20T01:18:45.441Z,99.90
2023-05-20T01:21:14.936Z,99.90
2023-05-20T01:23:44.512Z,99.90
2023-05-20T01:26:13.816Z,99.90
2023-05-20T01:28:44.645Z,99.90
2023-05-20T01:31:19.439Z,99.90
2023-05-20T01:33:51.259Z,99.90
2023-05-20T01:36:22.425Z,99.90
2023-05-20T01:38:54.169Z,99.90
2023-05-20T01:41:24.099Z,99.90
2023-05-20T01:43:52.317Z,99.90
2023-05-20T01:46:20.603Z,99.90
2023-05-20T01:48:48.744Z,99.90
2023-05-20T01:51:17.845Z,99.90
2023-05-20T02:05:20.425Z,99.90
2023-05-20T02:07:48.550Z,99.90
2023-05-20T02:10:16.827Z,99.90
2023-05-20T02:12:44.972Z,99.90
2023-05-20T02:15:13.149Z,99.90
2023-05-20T02:17:43.693Z,99.90
2023-05-20T02:20:14.062Z,99.90
2023-05-20T02:22:43.582Z,99.90
2023-05-20T02:25:11.881Z,99.90
2023-05-20T02:27:40.675Z,99.90
2023-05-20T02:30:10.577Z,99.90
2023-05-20T02:32:38.828Z,99.90
2023-05-20T02:35:07.652Z,99.90
2023-05-20T02:37:35.864Z,99.90
2023-05-20T02:40:06.993Z,99.90
2023-05-20T02:42:35.105Z,99.90
2023-05-20T02:45:03.560Z,99.90
2023-05-20T02:47:31.618Z,99.90
2023-05-20T02:49:59.753Z,99.90
2023-05-20T02:52:28.507Z,99.90
2023-05-20T02:54:56.686Z,99.90
2023-05-20T02:57:27.379Z,99.90
2023-05-20T02:59:56.453Z,99.90
2023-05-20T03:07:46.427Z,99.90
2023-05-20T03:10:14.592Z,99.90
2023-05-20T03:12:44.049Z,99.90
2023-05-20T03:19:10.354Z,99.90
2023-05-20T03:21:38.627Z,99.90
2023-05-20T03:24:07.336Z,99.90
2023-05-20T03:26:37.660Z,99.90
2023-05-20T03:29:07.348Z,99.90
2023-05-20T03:31:35.507Z,99.90
2023-05-20T03:34:03.690Z,99.90
2023-05-20T03:36:32.101Z,99.90
2023-05-20T03:39:00.188Z,99.90
2023-05-20T03:41:28.358Z,99.90
2023-05-20T03:43:56.520Z,99.90
2023-05-20T03:46:26.134Z,99.90
2023-05-20T03:48:54.271Z,99.90
2023-05-20T04:03:38.517Z,99.90
2023-05-20T04:06:08.066Z,99.90
2023-05-20T04:08:38.394Z,99.90
2023-05-20T04:11:06.877Z,99.90
2023-05-20T04:13:35.113Z,99.90
2023-05-20T04:16:03.335Z,99.90
2023-05-20T04:18:31.889Z,99.90
2023-05-20T04:21:01.675Z,99.90
2023-05-20T04:23:31.274Z,99.90
2023-05-20T04:26:02.551Z,99.90
2023-05-20T04:28:31.553Z,99.90
2023-05-20T04:31:01.142Z,99.90
2023-05-20T04:33:29.415Z,99.90
2023-05-20T04:35:58.714Z,99.90
2023-05-20T04:38:30.042Z,99.90
2023-05-20T04:41:00.358Z,99.90
2023-05-20T04:43:30.985Z,99.90
2023-05-20T04:45:59.858Z,99.90
2023-05-20T04:48:28.021Z,99.90
2023-05-20T04:50:56.133Z,99.90
2023-05-20T04:53:24.228Z,99.90
2023-05-20T04:55:56.998Z,99.90
2023-05-20T04:58:26.655Z,99.90
2023-05-20T05:00:54.788Z,99.90
2023-05-20T05:03:23.142Z,99.90
2023-05-20T05:05:51.656Z,99.90
2023-05-20T05:08:19.798Z,99.90
2023-05-20T05:10:48.045Z,99.90
2023-05-20T05:13:16.220Z,99.90
2023-05-20T05:15:45.867Z,99.90
2023-05-20T05:18:13.963Z,99.90
2023-05-20T05:20:42.059Z,99.90
2023-05-20T05:23:10.114Z,99.90
2023-05-20T05:25:38.282Z,99.90
2023-05-20T05:28:06.354Z,99.90
2023-05-20T05:30:34.532Z,99.90
2023-05-20T05:33:04.185Z,99.90
2023-05-20T05:35:32.652Z,99.90
2023-05-20T05:38:00.969Z,99.90
2023-05-20T05:40:29.111Z,99.90
2023-05-20T05:42:57.261Z,99.90
2023-05-20T05:45:25.394Z,99.90
2023-05-20T05:47:53.529Z,99.90
2023-05-20T05:50:23.275Z,99.90
2023-05-20T05:52:51.456Z,99.90
2023-05-20T05:55:19.568Z,99.90
2023-05-20T05:57:47.660Z,99.90
2023-05-20T06:00:16.362Z,99.90
2023-05-20T06:02:44.577Z,99.90
2023-05-20T06:05:12.953Z,99.90
2023-05-20T06:20:15.121Z,99.90
2023-05-20T06:22:43.255Z,99.90
2023-05-20T06:25:12.434Z,99.90
2023-05-20T06:27:40.586Z,99.90
2023-05-20T06:30:09.778Z,99.90
2023-05-20T06:32:37.856Z,99.90
2023-05-20T06:35:06.788Z,99.90
2023-05-20T06:37:36.328Z,99.90
2023-05-20T06:40:04.880Z,99.90
2023-05-20T06:42:32.995Z,99.90
2023-05-20T06:45:01.195Z,99.90
2023-05-20T06:47:29.297Z,99.90
2023-05-20T06:49:57.432Z,99.90
2023-05-20T06:52:25.535Z,99.90
2023-05-20T06:54:55.061Z,99.90
2023-05-20T06:57:23.111Z,99.90
2023-05-20T06:59:51.221Z,99.90
2023-05-20T07:02:19.280Z,99.90
2023-05-20T07:04:47.387Z,99.90
2023-05-20T07:07:17.315Z,99.40
2023-05-20T07:09:46.585Z,99.20
2023-05-20T07:12:16.073Z,98.80
2023-05-20T07:14:44.367Z,97.80
2023-05-20T07:17:12.920Z,99.20
2023-05-20T07:19:41.139Z,99.70
2023-05-20T07:22:09.456Z,99.90
2023-05-20T07:24:37.922Z,99.90
2023-05-20T07:27:06.371Z,99.90
2023-05-20T07:38:12.052Z,99.50
2023-05-20T07:40:42.132Z,99.30
2023-05-20T07:50:42.206Z,98.70
2023-05-20T07:53:10.310Z,99.10
2023-05-20T07:55:38.447Z,99.20
2023-05-20T07:58:07.931Z,99.00
2023-05-20T08:00:36.014Z,99.20
2023-05-20T08:03:04.311Z,98.10
2023-05-20T08:05:32.864Z,97.80
2023-05-20T08:08:01.180Z,98.20
2023-05-20T08:10:29.242Z,98.80
2023-05-20T08:12:57.648Z,99.10
2023-05-20T08:15:27.228Z,99.30
2023-05-20T08:37:46.864Z,97.80
2023-05-20T08:40:17.034Z,97.60
2023-05-20T08:42:45.577Z,97.80
2023-05-20T08:45:14.217Z,97.40
2023-05-20T08:47:43.938Z,96.70
2023-05-20T08:50:13.420Z,97.20
2023-05-20T08:52:45.365Z,96.70
2023-05-20T08:55:22.986Z,97.30
2023-05-20T08:57:51.974Z,97.00
2023-05-20T09:00:20.899Z,97.00
2023-05-20T09:02:49.249Z,96.90
2023-05-20T09:05:18.202Z,95.80
2023-05-20T09:07:46.797Z,96.00
2023-05-20T09:10:15.305Z,96.70
2023-05-20T09:12:44.866Z,96.40
2023-05-20T09:15:13.143Z,96.00
2023-05-20T09:17:41.326Z,95.90
2023-05-20T09:20:12.006Z,96.40
2023-05-20T09:22:40.596Z,97.00
2023-05-20T09:25:12.262Z,96.90
2023-05-20T09:27:41.628Z,96.60
2023-05-20T09:30:12.979Z,95.70
2023-05-20T09:32:41.346Z,96.10
2023-05-20T09:50:26.184Z,95.70
2023-05-20T09:52:55.899Z,95.10
2023-05-20T09:55:25.368Z,95.60
2023-05-20T10:01:59.897Z,96.00
2023-05-20T10:04:29.012Z,95.90
2023-05-20T10:07:45.066Z,96.40
2023-05-20T10:10:27.893Z,96.50
2023-05-20T10:13:06.759Z,96.70
2023-05-20T10:15:42.806Z,96.50
2023-05-20T10:18:21.601Z,96.90
2023-05-20T10:20:50.932Z,97.20
2023-05-20T10:23:24.101Z,97.00
2023-05-20T10:25:54.801Z,97.20
2023-05-20T10:28:33.508Z,96.30
2023-05-20T10:31:02.068Z,96.70
2023-05-20T10:33:30.735Z,97.20
2023-05-20T10:36:01.040Z,97.00
2023-05-20T10:38:29.488Z,97.10
2023-05-20T10:41:11.275Z,97.50
2023-05-20T10:43:39.450Z,97.20
2023-05-20T10:46:13.674Z,97.10
2023-05-20T10:48:49.855Z,97.40
2023-05-20T10:51:18.144Z,98.10
2023-05-20T10:53:47.820Z,97.80
2023-05-20T10:56:21.764Z,97.90
2023-05-20T10:58:50.657Z,97.80
2023-05-20T11:01:20.055Z,97.80
2023-05-20T11:03:48.725Z,98.20
2023-05-20T11:06:19.058Z,97.80
2023-05-20T11:08:47.647Z,97.50
2023-05-20T11:11:16.524Z,97.70
2023-05-20T11:13:46.919Z,97.90
2023-05-20T11:16:15.050Z,98.20
2023-05-20T11:18:43.228Z,98.10
2023-05-20T11:21:11.754Z,97.30
2023-05-20T11:23:40.843Z,97.40
2023-05-20T11:26:09.094Z,97.40
2023-05-20T11:28:37.421Z,96.90
2023-05-20T11:31:07.652Z,97.00
2023-05-20T11:33:35.749Z,97.20
2023-05-20T11:36:10.683Z,97.90
2023-05-20T11:38:46.947Z,97.90
2023-05-20T11:41:15.117Z,98.10
2023-05-20T11:43:43.320Z,98.20
2023-05-20T11:46:13.293Z,98.40
2023-05-20T11:48:43.660Z,97.30
2023-05-20T11:51:11.789Z,97.60
2023-05-20T11:53:42.347Z,97.90
2023-05-20T11:56:10.458Z,98.40
2023-05-20T11:58:38.612Z,98.40
2023-05-20T12:01:21.104Z,97.90
2023-05-20T12:03:52.353Z,97.80
2023-05-20T12:06:20.926Z,97.50
2023-05-20T12:08:49.126Z,97.80
2023-05-20T12:11:17.289Z,98.10
2023-05-20T12:13:45.563Z,97.50
2023-05-20T12:16:13.727Z,97.60
2023-05-20T12:18:42.034Z,96.70
2023-05-20T12:21:11.834Z,97.10
2023-05-20T12:23:39.901Z,97.10
2023-05-20T12:26:08.013Z,97.90
2023-05-20T12:28:36.311Z,97.50
2023-05-20T12:31:04.560Z,97.30
2023-05-20T12:33:32.874Z,97.00
2023-05-20T12:36:01.139Z,97.20
2023-05-20T12:38:30.970Z,96.80
2023-05-20T12:40:59.017Z,96.40
2023-05-20T12:43:27.164Z,96.80
2023-05-20T12:45:56.023Z,96.90
2023-05-20T12:48:24.219Z,97.10
2023-05-20T12:50:52.333Z,97.00
2023-05-20T12:53:20.418Z,96.50
2023-05-20T12:55:50.158Z,96.80
2023-05-20T12:58:18.350Z,96.60
2023-05-20T13:00:46.514Z,97.10
2023-05-20T13:03:14.758Z,96.90
2023-05-20T13:05:43.100Z,97.20
2023-05-20T13:08:12.701Z,97.60
2023-05-20T13:18:23.741Z,97.30
2023-05-20T13:20:51.834Z,97.40
2023-05-20T13:23:19.946Z,96.90
2023-05-20T13:25:48.073Z,97.30
2023-05-20T13:28:18.863Z,97.60
2023-05-20T13:30:47.050Z,97.30
2023-05-20T13:33:15.233Z,97.20
2023-05-20T13:35:44.889Z,97.50
2023-05-20T13:38:13.034Z,97.80
2023-05-20T13:40:41.166Z,97.20
2023-05-20T13:43:09.287Z,97.40
2023-05-20T13:45:37.406Z,97.60
2023-05-20T13:48:05.906Z,97.50
2023-05-20T13:50:34.199Z,96.80
2023-05-20T14:08:27.791Z,97.00
2023-05-20T14:10:55.939Z,97.00
2023-05-20T14:13:24.434Z,97.10
2023-05-20T14:15:54.753Z,97.40
2023-05-20T14:18:23.124Z,97.60
2023-05-20T14:20:51.328Z,97.50
2023-05-20T14:23:19.448Z,97.90
2023-05-20T14:25:48.995Z,97.70
2023-05-20T14:28:17.110Z,97.40
2023-05-20T14:30:45.202Z,97.30
2023-05-20T14:33:13.467Z,97.60
2023-05-20T14:35:41.589Z,97.30
2023-05-20T14:38:09.696Z,97.20
2023-05-20T14:40:37.921Z,97.20
2023-05-20T14:43:07.453Z,97.40
2023-05-20T14:45:35.587Z,97.30
2023-05-20T14:48:03.751Z,97.10
2023-05-20T14:50:31.914Z,97.50
2023-05-20T14:53:00.012Z,97.90
2023-05-20T14:55:28.108Z,97.70
2023-05-20T14:57:56.252Z,97.70
2023-05-20T15:00:25.843Z,97.50
2023-05-20T15:02:54.106Z,98.00
2023-05-20T15:05:22.237Z,97.80
2023-05-20T15:07:50.418Z,97.20
2023-05-20T15:10:18.746Z,97.20
2023-05-20T15:12:46.888Z,97.50
2023-05-20T15:15:15.013Z,97.40
2023-05-20T15:17:44.526Z,97.30
2023-05-20T15:20:13.952Z,97.50
2023-05-20T15:22:44.016Z,97.30
2023-05-20T15:25:12.091Z,97.20
2023-05-20T15:27:42.248Z,97.30
2023-05-20T15:30:11.550Z,97.30
2023-05-20T15:32:40.079Z,97.50
2023-05-20T15:35:10.722Z,97.70
2023-05-20T15:37:38.851Z,97.60
2023-05-20T15:40:08.541Z,97.70
2023-05-20T15:42:36.691Z,97.40
2023-05-20T15:45:04.982Z,97.80
2023-05-20T15:47:33.127Z,98.20
2023-05-20T15:50:02.306Z,98.50
2023-05-20T15:52:31.905Z,98.20
2023-05-20T15:55:00.035Z,98.20
2023-05-20T15:57:29.281Z,97.80
2023-05-20T15:59:57.683Z,97.90
2023-05-20T16:02:26.663Z,98.00
2023-05-20T16:04:54.931Z,98.20
2023-05-20T16:07:23.036Z,98.20
2023-05-20T16:09:52.455Z,98.20
2023-05-20T16:12:20.592Z,97.80
2023-05-20T16:14:48.707Z,97.90
2023-05-20T16:17:18.966Z,98.40
2023-05-20T16:19:47.290Z,98.50
2023-05-20T16:22:15.831Z,98.80
2023-05-20T16:24:43.906Z,98.30
2023-05-20T16:27:13.422Z,98.00
2023-05-20T16:29:41.533Z,98.30
2023-05-20T16:32:09.748Z,98.50
2023-05-20T16:34:38.097Z,98.80
2023-05-20T16:37:06.392Z,99.10
2023-05-20T16:39:34.542Z,99.40
2023-05-20T16:42:02.761Z,99.00
2023-05-20T16:44:32.276Z,98.90
2023-05-20T16:47:00.411Z,99.30
2023-05-20T16:49:29.416Z,99.10
2023-05-20T16:51:57.515Z,99.50
2023-05-20T16:54:25.737Z,99.50
2023-05-20T16:56:53.821Z,99.60
2023-05-20T16:59:24.788Z,99.70
2023-05-20T17:01:54.252Z,99.70
2023-05-20T17:04:22.402Z,99.90
2023-05-20T17:06:51.287Z,99.90
2023-05-20T17:09:19.482Z,99.80
2023-05-20T17:11:47.605Z,99.60
2023-05-20T17:14:15.870Z,99.60
2023-05-20T17:16:43.960Z,99.70
2023-05-20T17:19:13.554Z,99.60
2023-05-20T17:21:41.758Z,99.70
2023-05-20T17:24:09.868Z,99.70
2023-05-20T17:26:38.031Z,99.70
2023-05-20T17:29:06.609Z,99.80
2023-05-20T17:31:34.682Z,99.60
2023-05-20T17:34:02.824Z,99.50
2023-05-20T17:36:32.775Z,99.50
2023-05-20T17:39:04.312Z,99.20
2023-05-20T17:41:32.425Z,99.50
2023-05-20T17:44:01.524Z,99.50
2023-05-20T17:46:29.741Z,99.60
2023-05-20T17:48:57.940Z,99.60
2023-05-20T17:51:26.302Z,99.90
2023-05-20T17:53:55.850Z,99.90
2023-05-20T17:56:24.065Z,99.90
2023-05-20T17:58:53.742Z,99.90
2023-05-20T18:01:23.754Z,99.90
2023-05-20T18:03:52.005Z,99.90
2023-05-20T18:06:20.179Z,99.90
2023-05-20T18:08:48.830Z,99.90
2023-05-20T18:11:18.560Z,99.90
2023-05-20T18:13:46.770Z,99.90
2023-05-20T18:16:14.928Z,99.90
2023-05-20T18:18:43.080Z,99.90
2023-05-20T18:21:11.492Z,99.90
2023-05-20T18:23:39.621Z,99.90
2023-05-20T18:26:09.190Z,99.90
2023-05-20T18:28:38.733Z,99.90
2023-05-20T18:31:06.871Z,99.90
2023-05-20T18:33:37.015Z,99.90
2023-05-20T18:36:06.805Z,99.90
2023-05-20T18:38:34.895Z,99.90
2023-05-20T18:41:03.003Z,99.90
2023-05-20T18:43:31.231Z,99.90
2023-05-20T18:46:00.760Z,99.90
2023-05-20T18:48:29.108Z,99.90
2023-05-20T18:50:58.623Z,99.90
2023-05-20T18:53:26.820Z,99.90
2023-05-20T18:55:56.041Z,99.90
2023-05-20T18:58:24.284Z,99.90
2023-05-20T19:00:52.437Z,99.90
2023-05-20T19:03:23.397Z,99.90
2023-05-20T19:05:51.562Z,99.90
2023-05-20T19:08:19.761Z,99.90
2023-05-20T19:10:47.887Z,99.90
2023-05-20T19:13:15.981Z,99.90
2023-05-20T19:15:44.196Z,99.90
2023-05-20T19:18:13.487Z,99.90
2023-05-20T19:20:43.024Z,99.90
2023-05-20T19:23:11.132Z,99.90
2023-05-20T19:25:39.312Z,99.90
2023-05-20T19:28:07.449Z,99.90
2023-05-20T19:30:35.690Z,99.90
2023-05-20T19:33:05.602Z,99.90
2023-05-20T19:35:34.747Z,99.90
2023-05-20T19:38:06.911Z,99.90
2023-05-20T19:40:35.912Z,99.90
2023-05-20T19:43:04.080Z,99.90
2023-05-20T19:45:32.316Z,99.90
2023-05-20T19:48:00.802Z,99.90
2023-05-20T19:50:28.968Z,99.90
2023-05-20T19:52:57.077Z,99.90
2023-05-20T19:55:26.719Z,99.90
2023-05-20T19:57:54.816Z,99.90
2023-05-20T20:00:22.996Z,99.90
2023-05-20T20:02:51.348Z,99.90
2023-05-20T20:05:22.349Z,99.90
2023-05-20T20:07:51.917Z,99.90
2023-05-20T20:10:20.053Z,99.90
2023-05-20T20:12:49.836Z,99.90
2023-05-20T20:15:20.496Z,99.90
2023-05-20T20:17:52.155Z,99.90
2023-05-20T20:20:20.872Z,99.90
2023-05-20T20:22:48.938Z,99.90
2023-05-20T20:25:17.529Z,99.90
2023-05-20T20:27:45.616Z,99.90
2023-05-20T20:30:16.107Z,99.90
2023-05-20T20:32:44.289Z,99.90
2023-05-20T20:35:12.455Z,99.90
2023-05-20T20:37:40.534Z,99.90
2023-05-20T20:40:13.572Z,99.90
2023-05-20T20:42:45.014Z,99.90
2023-05-20T20:45:15.213Z,99.90
2023-05-20T20:47:43.835Z,99.90
2023-05-20T20:50:12.614Z,99.90
2023-05-20T21:01:24.192Z,99.90
2023-05-20T21:03:54.571Z,99.90
2023-05-20T21:06:22.930Z,99.90
2023-05-20T21:08:53.158Z,99.90
2023-05-20T21:11:22.424Z,99.90
2023-05-20T21:13:50.539Z,99.90
2023-05-20T21:16:18.754Z,99.90
2023-05-20T21:18:47.063Z,99.90
2023-05-20T21:21:20.512Z,99.90
2023-05-20T21:23:50.885Z,99.90
2023-05-20T21:26:21.269Z,99.90
2023-05-20T21:28:49.702Z,99.90
2023-05-20T21:31:17.964Z,99.90
2023-05-20T21:33:46.201Z,99.90
2023-05-20T21:36:14.476Z,99.90
2023-05-20T21:38:43.942Z,99.90
2023-05-20T22:01:17.435Z,99.90
2023-05-20T22:03:49.520Z,99.90
2023-05-20T22:06:21.416Z,99.90
2023-05-20T22:08:50.077Z,99.90
2023-05-20T22:11:19.674Z,99.90
2023-05-20T22:13:47.775Z,99.90
2023-05-20T22:16:17.337Z,99.90
2023-05-20T22:18:47.713Z,99.90
2023-05-20T22:21:16.057Z,99.90
2023-05-20T22:23:44.221Z,99.90
2023-05-20T22:26:12.407Z,99.90
2023-05-20T22:28:40.511Z,99.90
2023-05-20T22:31:08.862Z,99.90
2023-05-20T22:33:41.335Z,99.90
2023-05-20T22:36:10.037Z,99.90
2023-05-20T22:38:38.124Z,99.90
2023-05-20T22:41:06.356Z,99.90
2023-05-20T22:43:35.752Z,99.90
2023-05-20T22:46:04.206Z,99.90
2023-05-20T22:48:32.358Z,99.90
2023-05-20T22:51:03.896Z,99.90
2023-05-20T22:53:32.004Z,99.90
2023-05-20T22:56:00.946Z,99.90
2023-05-20T22:58:29.718Z,99.90
2023-05-20T23:00:59.607Z,99.90
2023-05-20T23:03:27.796Z,99.90
2023-05-20T23:05:55.873Z,99.90
2023-05-20T23:08:25.908Z,99.90
2023-05-20T23:10:53.981Z,99.90
2023-05-20T23:21:04.092Z,99.90
2023-05-20T23:23:33.582Z,99.90
2023-05-20T23:26:01.773Z,99.90
2023-05-20T23:28:29.938Z,99.90
2023-05-20T23:30:58.039Z,99.90
2023-05-20T23:33:26.242Z,99.90
2023-05-20T23:35:54.423Z,99.90
2023-05-20T23:38:22.744Z,99.90
2023-05-20T23:40:52.353Z,99.90
2023-05-20T23:43:20.561Z,99.90
2023-05-20T23:45:48.725Z,99.90
2023-05-20T23:48:17.929Z,99.90
2023-05-20T23:50:46.569Z,99.90
2023-05-20T23:53:14.673Z,99.90
2023-05-20T23:55:45.224Z,99.90
2023-05-20T23:58:14.784Z,99.90
